sensor_id;sensor_type;location;lat;lon;timestamp;temperature;humidity
53045;DHT22;38930;52.766;6.884;2023-08-01T00:00:16;16.50;99.90
53045;DHT22;38930;52.766;6.884;2023-08-01T00:02:41;16.40;99.90
53045;DHT22;38930;52.766;6.884;2023-08-01T00:05:08;16.50;99.90
53045;DHT22;38930;52.766;6.884;2023-08-01T00:07:33;16.50;99.90
53045;DHT22;38930;52.766;6.884;2023-08-01T00:09:59;16.50;99.90
53045;DHT22;38930;52.766;6.884;2023-08-01T00:12:25;16.50;99.90
53045;DHT22;38930;52.766;6.884;2023-08-01T00:14:51;16.50;99.90
53045;DHT22;38930;52.766;6.884;2023-08-01T00:17:17;16.50;99.90
53045;DHT22;38930;52.766;6.884;2023-08-01T00:19:42;16.50;99.90
53045;DHT22;38930;52.766;6.884;2023-08-01T00:22:08;16.50;99.90
53045;DHT22;38930;52.766;6.884;2023-08-01T00:24:35;16.50;99.90
53045;DHT22;38930;52.766;6.884;2023-08-01T00:27:00;16.50;99.90
53045;DHT22;38930;52.766;6.884;2023-08-01T00:29:26;16.50;99.90
53045;DHT22;38930;52.766;6.884;2023-08-01T00:31:51;16.50;99.90
53045;DHT22;38930;52.766;6.884;2023-08-01T00:34:17;16.40;99.90
53045;DHT22;38930;52.766;6.884;2023-08-01T00:36:42;16.40;99.90
53045;DHT22;38930;52.766;6.884;2023-08-01T00:39:08;16.40;99.90
53045;DHT22;38930;52.766;6.884;2023-08-01T00:41:35;16.40;99.90
53045;DHT22;38930;52.766;6.884;2023-08-01T00:44:00;16.30;99.90
53045;DHT22;38930;52.766;6.884;2023-08-01T00:46:26;16.40;99.90
53045;DHT22;38930;52.766;6.884;2023-08-01T00:48:53;16.40;99.90
53045;DHT22;38930;52.766;6.884;2023-08-01T00:51:19;16.40;99.90
53045;DHT22;38930;52.766;6.884;2023-08-01T00:53:45;16.40;99.90
53045;DHT22;38930;52.766;6.884;2023-08-01T00:56:11;16.40;99.90
53045;DHT22;38930;52.766;6.884;2023-08-01T00:58:37;16.40;99.90
53045;DHT22;38930;52.766;6.884;2023-08-01T01:01:03;16.40;99.90
53045;DHT22;38930;52.766;6.884;2023-08-01T01:03:29;16.40;99.90
53045;DHT22;38930;52.766;6.884;2023-08-01T01:06:14;16.40;99.90
53045;DHT22;38930;52.766;6.884;2023-08-01T01:08:42;16.40;99.90
53045;DHT22;38930;52.766;6.884;2023-08-01T01:11:07;16.40;99.90
53045;DHT22;38930;52.766;6.884;2023-08-01T01:13:33;16.40;99.90
53045;DHT22;38930;52.766;6.884;2023-08-01T01:15:59;16.40;99.90
53045;DHT22;38930;52.766;6.884;2023-08-01T01:18:25;16.40;99.90
53045;DHT22;38930;52.766;6.884;2023-08-01T01:20:51;16.40;99.90
53045;DHT22;38930;52.766;6.884;2023-08-01T01:23:17;16.50;99.90
53045;DHT22;38930;52.766;6.884;2023-08-01T01:25:45;16.40;99.90
53045;DHT22;38930;52.766;6.884;2023-08-01T01:28:12;16.30;99.90
53045;DHT22;38930;52.766;6.884;2023-08-01T01:30:38;16.30;99.90
53045;DHT22;38930;52.766;6.884;2023-08-01T01:33:05;16.30;99.90
53045;DHT22;38930;52.766;6.884;2023-08-01T01:35:33;16.30;99.90
53045;DHT22;38930;52.766;6.884;2023-08-01T01:38:00;16.40;99.90
53045;DHT22;38930;52.766;6.884;2023-08-01T01:40:32;16.30;99.90
53045;DHT22;38930;52.766;6.884;2023-08-01T01:42:59;16.30;99.90
53045;DHT22;38930;52.766;6.884;2023-08-01T01:45:24;16.30;99.90
53045;DHT22;38930;52.766;6.884;2023-08-01T01:47:50;16.30;99.90
53045;DHT22;38930;52.766;6.884;2023-08-01T01:50:15;16.30;99.90
53045;DHT22;38930;52.766;6.884;2023-08-01T01:52:41;16.30;99.90
53045;DHT22;38930;52.766;6.884;2023-08-01T01:55:07;16.30;99.90
53045;DHT22;38930;52.766;6.884;2023-08-01T01:57:32;16.30;99.90
53045;DHT22;38930;52.766;6.884;2023-08-01T01:59:58;16.40;99.90
53045;DHT22;38930;52.766;6.884;2023-08-01T02:02:24;16.30;99.90
53045;DHT22;38930;52.766;6.884;2023-08-01T02:04:50;16.30;99.90
53045;DHT22;38930;52.766;6.884;2023-08-01T02:07:16;16.30;99.90
53045;DHT22;38930;52.766;6.884;2023-08-01T02:09:41;16.20;99.90
53045;DHT22;38930;52.766;6.884;2023-08-01T02:12:07;16.20;99.90
53045;DHT22;38930;52.766;6.884;2023-08-01T02:14:35;16.30;99.90
53045;DHT22;38930;52.766;6.884;2023-08-01T02:17:01;16.20;99.90
53045;DHT22;38930;52.766;6.884;2023-08-01T02:19:27;16.30;99.90
53045;DHT22;38930;52.766;6.884;2023-08-01T02:21:53;16.20;99.90
53045;DHT22;38930;52.766;6.884;2023-08-01T02:24:19;16.20;99.90
53045;DHT22;38930;52.766;6.884;2023-08-01T02:26:44;16.30;99.90
53045;DHT22;38930;52.766;6.884;2023-08-01T02:29:10;16.30;99.90
53045;DHT22;38930;52.766;6.884;2023-08-01T02:31:36;16.20;99.90
53045;DHT22;38930;52.766;6.884;2023-08-01T02:34:01;16.30;99.90
53045;DHT22;38930;52.766;6.884;2023-08-01T02:36:27;16.30;99.90
53045;DHT22;38930;52.766;6.884;2023-08-01T02:38:52;16.20;99.90
53045;DHT22;38930;52.766;6.884;2023-08-01T02:41:18;16.20;99.90
53045;DHT22;38930;52.766;6.884;2023-08-01T02:43:44;16.20;99.90
53045;DHT22;38930;52.766;6.884;2023-08-01T02:46:09;16.20;99.90
53045;DHT22;38930;52.766;6.884;2023-08-01T02:48:35;16.20;99.90
53045;DHT22;38930;52.766;6.884;2023-08-01T02:51:01;16.20;99.90
53045;DHT22;38930;52.766;6.884;2023-08-01T02:53:27;16.20;99.90
53045;DHT22;38930;52.766;6.884;2023-08-01T02:55:53;16.20;99.90
53045;DHT22;38930;52.766;6.884;2023-08-01T02:58:18;16.20;99.90
53045;DHT22;38930;52.766;6.884;2023-08-01T03:00:44;16.20;99.90
53045;DHT22;38930;52.766;6.884;2023-08-01T03:03:10;16.20;99.90
53045;DHT22;38930;52.766;6.884;2023-08-01T03:05:36;16.20;99.90
53045;DHT22;38930;52.766;6.884;2023-08-01T03:08:03;16.10;99.90
53045;DHT22;38930;52.766;6.884;2023-08-01T03:10:29;16.10;99.90
53045;DHT22;38930;52.766;6.884;2023-08-01T03:12:55;16.10;99.90
53045;DHT22;38930;52.766;6.884;2023-08-01T03:15:20;16.10;99.90
53045;DHT22;38930;52.766;6.884;2023-08-01T03:17:46;16.00;99.90
53045;DHT22;38930;52.766;6.884;2023-08-01T03:20:12;16.10;99.90
53045;DHT22;38930;52.766;6.884;2023-08-01T03:22:41;16.00;99.90
53045;DHT22;38930;52.766;6.884;2023-08-01T03:25:07;15.90;99.90
53045;DHT22;38930;52.766;6.884;2023-08-01T03:27:34;16.00;99.90
53045;DHT22;38930;52.766;6.884;2023-08-01T03:30:00;15.90;99.90
53045;DHT22;38930;52.766;6.884;2023-08-01T03:32:26;15.90;99.90
53045;DHT22;38930;52.766;6.884;2023-08-01T03:34:52;15.90;99.90
53045;DHT22;38930;52.766;6.884;2023-08-01T03:37:18;15.90;99.90
53045;DHT22;38930;52.766;6.884;2023-08-01T03:39:43;15.80;99.90
53045;DHT22;38930;52.766;6.884;2023-08-01T03:42:09;15.80;99.90
53045;DHT22;38930;52.766;6.884;2023-08-01T03:44:35;15.80;99.90
53045;DHT22;38930;52.766;6.884;2023-08-01T03:47:01;15.70;99.90
53045;DHT22;38930;52.766;6.884;2023-08-01T03:49:26;15.70;99.90
53045;DHT22;38930;52.766;6.884;2023-08-01T03:51:52;15.70;99.90
53045;DHT22;38930;52.766;6.884;2023-08-01T03:54:18;15.60;99.90
53045;DHT22;38930;52.766;6.884;2023-08-01T03:56:43;15.60;99.90
53045;DHT22;38930;52.766;6.884;2023-08-01T03:59:13;15.60;99.90
53045;DHT22;38930;52.766;6.884;2023-08-01T04:01:40;15.50;99.90
53045;DHT22;38930;52.766;6.884;2023-08-01T04:04:05;15.50;99.90
53045;DHT22;38930;52.766;6.884;2023-08-01T04:06:32;15.50;99.90
53045;DHT22;38930;52.766;6.884;2023-08-01T04:08:57;15.50;99.90
53045;DHT22;38930;52.766;6.884;2023-08-01T04:11:25;15.50;99.90
53045;DHT22;38930;52.766;6.884;2023-08-01T04:13:51;15.50;99.90
53045;DHT22;38930;52.766;6.884;2023-08-01T04:16:16;15.50;99.90
53045;DHT22;38930;52.766;6.884;2023-08-01T04:18:42;15.50;99.90
53045;DHT22;38930;52.766;6.884;2023-08-01T04:21:08;15.50;99.90
53045;DHT22;38930;52.766;6.884;2023-08-01T04:23:34;15.40;99.90
53045;DHT22;38930;52.766;6.884;2023-08-01T04:25:59;15.40;99.90
53045;DHT22;38930;52.766;6.884;2023-08-01T04:28:25;15.30;99.90
53045;DHT22;38930;52.766;6.884;2023-08-01T04:30:52;15.30;99.90
53045;DHT22;38930;52.766;6.884;2023-08-01T04:33:18;15.30;99.90
53045;DHT22;38930;52.766;6.884;2023-08-01T04:35:43;15.30;99.90
53045;DHT22;38930;52.766;6.884;2023-08-01T04:38:09;15.20;99.90
53045;DHT22;38930;52.766;6.884;2023-08-01T04:40:36;15.20;99.90
53045;DHT22;38930;52.766;6.884;2023-08-01T04:43:02;15.20;99.90
53045;DHT22;38930;52.766;6.884;2023-08-01T04:45:28;15.20;99.90
53045;DHT22;38930;52.766;6.884;2023-08-01T04:47:53;15.20;99.90
53045;DHT22;38930;52.766;6.884;2023-08-01T04:50:19;15.20;99.90
53045;DHT22;38930;52.766;6.884;2023-08-01T04:52:45;15.30;99.90
53045;DHT22;38930;52.766;6.884;2023-08-01T04:55:11;15.30;99.90
53045;DHT22;38930;52.766;6.884;2023-08-01T04:57:36;15.30;99.90
53045;DHT22;38930;52.766;6.884;2023-08-01T05:00:03;15.30;99.90
53045;DHT22;38930;52.766;6.884;2023-08-01T05:02:29;15.30;99.90
53045;DHT22;38930;52.766;6.884;2023-08-01T05:04:54;15.30;99.90
53045;DHT22;38930;52.766;6.884;2023-08-01T05:07:20;15.30;99.90
53045;DHT22;38930;52.766;6.884;2023-08-01T05:09:46;15.40;99.90
53045;DHT22;38930;52.766;6.884;2023-08-01T05:12:12;15.40;99.90
53045;DHT22;38930;52.766;6.884;2023-08-01T05:14:37;15.40;99.90
53045;DHT22;38930;52.766;6.884;2023-08-01T05:17:03;15.40;99.90
53045;DHT22;38930;52.766;6.884;2023-08-01T05:19:29;15.40;99.90
53045;DHT22;38930;52.766;6.884;2023-08-01T05:21:55;15.50;99.90
53045;DHT22;38930;52.766;6.884;2023-08-01T05:24:20;15.40;99.90
53045;DHT22;38930;52.766;6.884;2023-08-01T05:26:47;15.60;99.90
53045;DHT22;38930;52.766;6.884;2023-08-01T05:29:12;15.60;99.90
53045;DHT22;38930;52.766;6.884;2023-08-01T05:31:38;15.60;99.90
53045;DHT22;38930;52.766;6.884;2023-08-01T05:34:04;15.60;99.90
53045;DHT22;38930;52.766;6.884;2023-08-01T05:36:29;15.80;99.90
53045;DHT22;38930;52.766;6.884;2023-08-01T05:38:55;15.70;99.90
53045;DHT22;38930;52.766;6.884;2023-08-01T05:41:21;15.70;99.90
53045;DHT22;38930;52.766;6.884;2023-08-01T05:43:48;15.80;99.90
53045;DHT22;38930;52.766;6.884;2023-08-01T05:46:14;15.80;99.90
53045;DHT22;38930;52.766;6.884;2023-08-01T05:48:40;15.80;99.90
53045;DHT22;38930;52.766;6.884;2023-08-01T05:51:06;15.80;99.90
53045;DHT22;38930;52.766;6.884;2023-08-01T05:53:31;15.80;99.90
53045;DHT22;38930;52.766;6.884;2023-08-01T05:55:57;15.90;99.90
53045;DHT22;38930;52.766;6.884;2023-08-01T05:58:23;15.90;99.90
53045;DHT22;38930;52.766;6.884;2023-08-01T06:00:48;15.90;99.90
53045;DHT22;38930;52.766;6.884;2023-08-01T06:03:14;15.90;99.90
53045;DHT22;38930;52.766;6.884;2023-08-01T06:05:40;15.90;99.90
53045;DHT22;38930;52.766;6.884;2023-08-01T06:08:06;15.90;99.90
53045;DHT22;38930;52.766;6.884;2023-08-01T06:10:33;15.90;99.90
53045;DHT22;38930;52.766;6.884;2023-08-01T06:12:59;15.90;99.90
53045;DHT22;38930;52.766;6.884;2023-08-01T06:15:24;15.80;99.90
53045;DHT22;38930;52.766;6.884;2023-08-01T06:17:50;15.90;99.90
53045;DHT22;38930;52.766;6.884;2023-08-01T06:20:16;15.90;99.90
53045;DHT22;38930;52.766;6.884;2023-08-01T06:22:42;15.90;99.90
53045;DHT22;38930;52.766;6.884;2023-08-01T06:25:08;15.90;99.90
53045;DHT22;38930;52.766;6.884;2023-08-01T06:27:34;15.90;99.90
53045;DHT22;38930;52.766;6.884;2023-08-01T06:30:00;15.80;99.90
53045;DHT22;38930;52.766;6.884;2023-08-01T06:32:25;15.80;99.90
53045;DHT22;38930;52.766;6.884;2023-08-01T06:34:51;15.80;99.90
53045;DHT22;38930;52.766;6.884;2023-08-01T06:37:17;15.80;99.90
53045;DHT22;38930;52.766;6.884;2023-08-01T06:39:42;15.80;99.90
53045;DHT22;38930;52.766;6.884;2023-08-01T06:42:08;15.80;99.90
53045;DHT22;38930;52.766;6.884;2023-08-01T06:44:34;15.80;99.90
53045;DHT22;38930;52.766;6.884;2023-08-01T06:47:00;15.90;99.90
53045;DHT22;38930;52.766;6.884;2023-08-01T06:49:25;15.90;99.90
53045;DHT22;38930;52.766;6.884;2023-08-01T06:51:51;16.00;99.90
53045;DHT22;38930;52.766;6.884;2023-08-01T06:54:16;16.10;99.90
53045;DHT22;38930;52.766;6.884;2023-08-01T06:56:42;16.20;99.90
53045;DHT22;38930;52.766;6.884;2023-08-01T06:59:16;16.50;99.90
53045;DHT22;38930;52.766;6.884;2023-08-01T07:01:42;16.50;99.90
53045;DHT22;38930;52.766;6.884;2023-08-01T07:04:13;16.60;99.90
53045;DHT22;38930;52.766;6.884;2023-08-01T07:06:39;16.70;99.90
53045;DHT22;38930;52.766;6.884;2023-08-01T07:09:05;16.80;99.90
53045;DHT22;38930;52.766;6.884;2023-08-01T07:11:31;16.70;99.90
53045;DHT22;38930;52.766;6.884;2023-08-01T07:13:57;16.70;99.90
53045;DHT22;38930;52.766;6.884;2023-08-01T07:16:23;16.90;99.90
53045;DHT22;38930;52.766;6.884;2023-08-01T07:18:48;17.00;99.90
53045;DHT22;38930;52.766;6.884;2023-08-01T07:21:15;17.20;99.90
53045;DHT22;38930;52.766;6.884;2023-08-01T07:23:41;17.30;99.90
53045;DHT22;38930;52.766;6.884;2023-08-01T07:26:07;17.30;99.90
53045;DHT22;38930;52.766;6.884;2023-08-01T07:28:33;17.30;99.90
53045;DHT22;38930;52.766;6.884;2023-08-01T07:31:02;17.30;99.90
53045;DHT22;38930;52.766;6.884;2023-08-01T07:33:29;17.30;99.90
53045;DHT22;38930;52.766;6.884;2023-08-01T07:35:55;17.30;99.90
53045;DHT22;38930;52.766;6.884;2023-08-01T07:38:20;17.30;99.90
53045;DHT22;38930;52.766;6.884;2023-08-01T07:40:46;17.40;99.90
53045;DHT22;38930;52.766;6.884;2023-08-01T07:43:12;17.40;99.90
53045;DHT22;38930;52.766;6.884;2023-08-01T07:45:38;17.50;99.90
53045;DHT22;38930;52.766;6.884;2023-08-01T07:48:04;17.60;99.90
53045;DHT22;38930;52.766;6.884;2023-08-01T07:50:30;17.70;99.90
53045;DHT22;38930;52.766;6.884;2023-08-01T07:52:56;17.80;99.90
53045;DHT22;38930;52.766;6.884;2023-08-01T07:55:21;17.80;99.90
53045;DHT22;38930;52.766;6.884;2023-08-01T07:57:47;17.70;99.90
53045;DHT22;38930;52.766;6.884;2023-08-01T08:00:13;17.60;99.90
53045;DHT22;38930;52.766;6.884;2023-08-01T08:02:41;17.60;99.90
53045;DHT22;38930;52.766;6.884;2023-08-01T08:05:07;17.40;99.90
53045;DHT22;38930;52.766;6.884;2023-08-01T08:07:33;17.50;99.90
53045;DHT22;38930;52.766;6.884;2023-08-01T08:09:59;17.40;99.90
53045;DHT22;38930;52.766;6.884;2023-08-01T08:12:24;17.40;99.90
53045;DHT22;38930;52.766;6.884;2023-08-01T08:14:50;17.30;99.90
53045;DHT22;38930;52.766;6.884;2023-08-01T08:17:15;17.30;99.90
53045;DHT22;38930;52.766;6.884;2023-08-01T08:19:41;17.20;99.90
53045;DHT22;38930;52.766;6.884;2023-08-01T08:22:07;17.10;99.90
53045;DHT22;38930;52.766;6.884;2023-08-01T08:24:32;17.10;99.90
53045;DHT22;38930;52.766;6.884;2023-08-01T08:26:58;17.10;99.90
53045;DHT22;38930;52.766;6.884;2023-08-01T08:29:24;17.00;99.90
53045;DHT22;38930;52.766;6.884;2023-08-01T08:31:50;17.10;99.90
53045;DHT22;38930;52.766;6.884;2023-08-01T08:34:16;17.20;99.90
53045;DHT22;38930;52.766;6.884;2023-08-01T08:36:41;17.20;99.90
53045;DHT22;38930;52.766;6.884;2023-08-01T08:39:07;17.30;99.90
53045;DHT22;38930;52.766;6.884;2023-08-01T08:41:38;17.20;99.90
53045;DHT22;38930;52.766;6.884;2023-08-01T08:44:07;17.10;99.90
53045;DHT22;38930;52.766;6.884;2023-08-01T08:46:34;17.10;99.90
53045;DHT22;38930;52.766;6.884;2023-08-01T08:49:04;17.10;99.90
53045;DHT22;38930;52.766;6.884;2023-08-01T08:51:31;17.00;99.90
53045;DHT22;38930;52.766;6.884;2023-08-01T08:53:57;16.90;99.90
53045;DHT22;38930;52.766;6.884;2023-08-01T08:56:23;16.80;99.90
53045;DHT22;38930;52.766;6.884;2023-08-01T08:58:49;16.80;99.90
53045;DHT22;38930;52.766;6.884;2023-08-01T09:01:17;16.80;99.90
53045;DHT22;38930;52.766;6.884;2023-08-01T09:03:42;16.80;99.90
53045;DHT22;38930;52.766;6.884;2023-08-01T09:06:14;16.80;99.90
53045;DHT22;38930;52.766;6.884;2023-08-01T09:08:51;16.90;99.90
53045;DHT22;38930;52.766;6.884;2023-08-01T09:11:18;16.90;99.90
53045;DHT22;38930;52.766;6.884;2023-08-01T09:13:44;17.00;99.90
53045;DHT22;38930;52.766;6.884;2023-08-01T09:16:10;17.00;99.90
53045;DHT22;38930;52.766;6.884;2023-08-01T09:18:47;17.00;99.90
53045;DHT22;38930;52.766;6.884;2023-08-01T09:21:13;17.00;99.90
53045;DHT22;38930;52.766;6.884;2023-08-01T09:23:40;17.00;99.90
53045;DHT22;38930;52.766;6.884;2023-08-01T09:26:16;17.00;99.90
53045;DHT22;38930;52.766;6.884;2023-08-01T09:28:42;17.00;99.90
53045;DHT22;38930;52.766;6.884;2023-08-01T09:31:07;17.00;99.90
53045;DHT22;38930;52.766;6.884;2023-08-01T09:33:40;17.10;99.90
53045;DHT22;38930;52.766;6.884;2023-08-01T09:36:09;17.10;99.90
53045;DHT22;38930;52.766;6.884;2023-08-01T09:38:36;17.20;99.90
53045;DHT22;38930;52.766;6.884;2023-08-01T09:41:05;17.00;99.90
53045;DHT22;38930;52.766;6.884;2023-08-01T09:43:35;16.90;99.90
53045;DHT22;38930;52.766;6.884;2023-08-01T09:46:01;16.80;99.90
53045;DHT22;38930;52.766;6.884;2023-08-01T09:48:29;16.80;99.90
53045;DHT22;38930;52.766;6.884;2023-08-01T09:51:06;16.70;99.90
53045;DHT22;38930;52.766;6.884;2023-08-01T09:53:32;16.70;99.90
53045;DHT22;38930;52.766;6.884;2023-08-01T09:56:00;16.70;99.90
53045;DHT22;38930;52.766;6.884;2023-08-01T09:58:32;16.60;99.90
53045;DHT22;38930;52.766;6.884;2023-08-01T10:01:00;16.60;99.90
53045;DHT22;38930;52.766;6.884;2023-08-01T10:03:28;16.70;99.90
53045;DHT22;38930;52.766;6.884;2023-08-01T10:05:55;16.50;99.90
53045;DHT22;38930;52.766;6.884;2023-08-01T10:08:22;16.40;99.90
53045;DHT22;38930;52.766;6.884;2023-08-01T10:10:48;16.50;99.90
53045;DHT22;38930;52.766;6.884;2023-08-01T10:13:14;16.50;99.90
53045;DHT22;38930;52.766;6.884;2023-08-01T10:15:41;16.60;99.90
53045;DHT22;38930;52.766;6.884;2023-08-01T10:18:07;16.70;99.90
53045;DHT22;38930;52.766;6.884;2023-08-01T10:20:36;16.80;99.90
53045;DHT22;38930;52.766;6.884;2023-08-01T10:23:02;17.10;99.90
53045;DHT22;38930;52.766;6.884;2023-08-01T10:25:29;17.10;99.90
53045;DHT22;38930;52.766;6.884;2023-08-01T10:28:03;17.30;99.90
53045;DHT22;38930;52.766;6.884;2023-08-01T10:30:29;17.60;99.90
53045;DHT22;38930;52.766;6.884;2023-08-01T10:32:56;17.80;99.90
53045;DHT22;38930;52.766;6.884;2023-08-01T10:35:36;18.00;99.90
53045;DHT22;38930;52.766;6.884;2023-08-01T10:40:42;18.20;99.90
53045;DHT22;38930;52.766;6.884;2023-08-01T10:43:24;18.30;99.90
53045;DHT22;38930;52.766;6.884;2023-08-01T10:46:03;18.50;99.90
53045;DHT22;38930;52.766;6.884;2023-08-01T10:48:29;18.80;99.90
53045;DHT22;38930;52.766;6.884;2023-08-01T10:50:58;18.90;99.90
53045;DHT22;38930;52.766;6.884;2023-08-01T10:53:23;18.90;99.90
53045;DHT22;38930;52.766;6.884;2023-08-01T10:55:49;18.80;99.90
53045;DHT22;38930;52.766;6.884;2023-08-01T10:58:15;18.80;99.90
53045;DHT22;38930;52.766;6.884;2023-08-01T11:00:44;19.00;99.90
53045;DHT22;38930;52.766;6.884;2023-08-01T11:03:10;19.30;99.90
53045;DHT22;38930;52.766;6.884;2023-08-01T11:05:36;19.60;99.90
53045;DHT22;38930;52.766;6.884;2023-08-01T11:08:03;19.70;99.90
53045;DHT22;38930;52.766;6.884;2023-08-01T11:10:30;19.70;99.90
53045;DHT22;38930;52.766;6.884;2023-08-01T11:12:56;19.60;99.90
53045;DHT22;38930;52.766;6.884;2023-08-01T11:15:22;19.60;99.90
53045;DHT22;38930;52.766;6.884;2023-08-01T11:17:51;19.70;99.90
53045;DHT22;38930;52.766;6.884;2023-08-01T11:20:19;19.70;99.90
53045;DHT22;38930;52.766;6.884;2023-08-01T11:23:00;19.60;99.90
53045;DHT22;38930;52.766;6.884;2023-08-01T11:25:37;19.60;99.90
53045;DHT22;38930;52.766;6.884;2023-08-01T11:28:08;19.50;99.90
53045;DHT22;38930;52.766;6.884;2023-08-01T11:30:34;19.20;99.90
53045;DHT22;38930;52.766;6.884;2023-08-01T11:33:00;19.00;99.90
53045;DHT22;38930;52.766;6.884;2023-08-01T11:35:28;18.90;99.90
53045;DHT22;38930;52.766;6.884;2023-08-01T11:37:54;18.60;99.90
53045;DHT22;38930;52.766;6.884;2023-08-01T11:40:20;18.50;99.90
53045;DHT22;38930;52.766;6.884;2023-08-01T11:42:50;18.40;99.90
53045;DHT22;38930;52.766;6.884;2023-08-01T11:45:18;18.20;99.90
53045;DHT22;38930;52.766;6.884;2023-08-01T11:47:47;18.20;99.90
53045;DHT22;38930;52.766;6.884;2023-08-01T11:50:14;18.20;99.90
53045;DHT22;38930;52.766;6.884;2023-08-01T11:52:40;18.30;99.90
53045;DHT22;38930;52.766;6.884;2023-08-01T11:55:06;18.30;99.90
53045;DHT22;38930;52.766;6.884;2023-08-01T11:57:31;18.50;99.90
53045;DHT22;38930;52.766;6.884;2023-08-01T11:59:57;18.70;99.90
53045;DHT22;38930;52.766;6.884;2023-08-01T12:02:28;18.70;99.90
53045;DHT22;38930;52.766;6.884;2023-08-01T12:04:57;18.70;99.90
53045;DHT22;38930;52.766;6.884;2023-08-01T12:07:25;18.60;99.90
53045;DHT22;38930;52.766;6.884;2023-08-01T12:09:59;18.50;99.90
53045;DHT22;38930;52.766;6.884;2023-08-01T12:12:27;18.40;99.90
53045;DHT22;38930;52.766;6.884;2023-08-01T12:14:53;18.40;99.90
53045;DHT22;38930;52.766;6.884;2023-08-01T12:17:19;18.50;99.90
53045;DHT22;38930;52.766;6.884;2023-08-01T12:19:45;18.50;99.90
53045;DHT22;38930;52.766;6.884;2023-08-01T12:22:12;18.70;99.90
53045;DHT22;38930;52.766;6.884;2023-08-01T12:24:37;18.90;99.90
53045;DHT22;38930;52.766;6.884;2023-08-01T12:27:08;19.10;99.90
53045;DHT22;38930;52.766;6.884;2023-08-01T12:29:34;19.30;99.90
53045;DHT22;38930;52.766;6.884;2023-08-01T12:32:02;19.40;99.90
53045;DHT22;38930;52.766;6.884;2023-08-01T12:34:28;19.30;99.90
53045;DHT22;38930;52.766;6.884;2023-08-01T12:36:54;19.30;99.90
53045;DHT22;38930;52.766;6.884;2023-08-01T12:39:19;19.20;99.90
53045;DHT22;38930;52.766;6.884;2023-08-01T12:41:45;19.10;99.90
53045;DHT22;38930;52.766;6.884;2023-08-01T12:44:11;19.10;99.90
53045;DHT22;38930;52.766;6.884;2023-08-01T12:46:37;19.10;99.90
53045;DHT22;38930;52.766;6.884;2023-08-01T12:49:04;19.20;99.90
53045;DHT22;38930;52.766;6.884;2023-08-01T12:51:30;19.20;99.90
53045;DHT22;38930;52.766;6.884;2023-08-01T12:53:55;19.40;99.90
53045;DHT22;38930;52.766;6.884;2023-08-01T12:56:21;19.60;99.90
53045;DHT22;38930;52.766;6.884;2023-08-01T12:58:47;19.80;99.90
53045;DHT22;38930;52.766;6.884;2023-08-01T13:01:13;20.00;99.90
53045;DHT22;38930;52.766;6.884;2023-08-01T13:03:38;20.20;99.90
53045;DHT22;38930;52.766;6.884;2023-08-01T13:06:04;20.30;99.90
53045;DHT22;38930;52.766;6.884;2023-08-01T13:08:30;20.20;99.90
53045;DHT22;38930;52.766;6.884;2023-08-01T13:10:56;20.20;99.90
53045;DHT22;38930;52.766;6.884;2023-08-01T13:13:22;19.90;99.90
53045;DHT22;38930;52.766;6.884;2023-08-01T13:15:47;19.60;99.90
53045;DHT22;38930;52.766;6.884;2023-08-01T13:18:13;19.30;99.90
53045;DHT22;38930;52.766;6.884;2023-08-01T13:20:39;19.10;99.90
53045;DHT22;38930;52.766;6.884;2023-08-01T13:23:05;19.00;99.90
53045;DHT22;38930;52.766;6.884;2023-08-01T13:25:30;19.00;99.90
53045;DHT22;38930;52.766;6.884;2023-08-01T13:27:56;18.80;99.90
53045;DHT22;38930;52.766;6.884;2023-08-01T13:30:22;18.80;99.90
53045;DHT22;38930;52.766;6.884;2023-08-01T13:32:48;18.80;99.90
53045;DHT22;38930;52.766;6.884;2023-08-01T13:35:14;18.90;99.90
53045;DHT22;38930;52.766;6.884;2023-08-01T13:37:40;19.20;99.90
53045;DHT22;38930;52.766;6.884;2023-08-01T13:40:06;19.40;99.90
53045;DHT22;38930;52.766;6.884;2023-08-01T13:42:32;19.60;99.90
53045;DHT22;38930;52.766;6.884;2023-08-01T13:44:59;19.90;99.90
53045;DHT22;38930;52.766;6.884;2023-08-01T13:47:25;20.10;99.90
53045;DHT22;38930;52.766;6.884;2023-08-01T13:49:50;20.30;99.90
53045;DHT22;38930;52.766;6.884;2023-08-01T13:52:16;20.20;99.90
53045;DHT22;38930;52.766;6.884;2023-08-01T13:54:42;20.10;99.90
53045;DHT22;38930;52.766;6.884;2023-08-01T13:57:07;19.90;99.90
53045;DHT22;38930;52.766;6.884;2023-08-01T13:59:33;19.80;99.90
53045;DHT22;38930;52.766;6.884;2023-08-01T14:01:58;19.70;99.90
53045;DHT22;38930;52.766;6.884;2023-08-01T14:04:24;19.80;99.90
53045;DHT22;38930;52.766;6.884;2023-08-01T14:06:49;19.90;99.90
53045;DHT22;38930;52.766;6.884;2023-08-01T14:09:15;20.20;99.90
53045;DHT22;38930;52.766;6.884;2023-08-01T14:11:41;20.40;99.90
53045;DHT22;38930;52.766;6.884;2023-08-01T14:14:06;20.50;99.90
53045;DHT22;38930;52.766;6.884;2023-08-01T14:16:32;20.50;99.90
53045;DHT22;38930;52.766;6.884;2023-08-01T14:19:01;20.40;99.90
53045;DHT22;38930;52.766;6.884;2023-08-01T14:21:26;20.20;99.90
53045;DHT22;38930;52.766;6.884;2023-08-01T14:23:52;20.00;99.90
53045;DHT22;38930;52.766;6.884;2023-08-01T14:26:18;19.90;99.90
53045;DHT22;38930;52.766;6.884;2023-08-01T14:28:43;19.70;99.90
53045;DHT22;38930;52.766;6.884;2023-08-01T14:31:09;19.60;99.90
53045;DHT22;38930;52.766;6.884;2023-08-01T14:33:35;19.60;99.90
53045;DHT22;38930;52.766;6.884;2023-08-01T14:36:01;19.50;99.90
53045;DHT22;38930;52.766;6.884;2023-08-01T14:38:26;19.60;99.90
53045;DHT22;38930;52.766;6.884;2023-08-01T14:40:52;19.80;99.90
53045;DHT22;38930;52.766;6.884;2023-08-01T14:43:18;19.80;99.90
53045;DHT22;38930;52.766;6.884;2023-08-01T14:45:44;19.90;99.90
53045;DHT22;38930;52.766;6.884;2023-08-01T14:48:10;19.90;99.90
53045;DHT22;38930;52.766;6.884;2023-08-01T14:50:37;19.80;99.90
53045;DHT22;38930;52.766;6.884;2023-08-01T14:53:03;19.70;99.90
53045;DHT22;38930;52.766;6.884;2023-08-01T14:55:29;19.80;99.90
53045;DHT22;38930;52.766;6.884;2023-08-01T14:57:55;19.80;99.90
53045;DHT22;38930;52.766;6.884;2023-08-01T15:00:20;19.70;99.90
53045;DHT22;38930;52.766;6.884;2023-08-01T15:02:46;19.70;99.90
53045;DHT22;38930;52.766;6.884;2023-08-01T15:05:13;19.70;99.90
53045;DHT22;38930;52.766;6.884;2023-08-01T15:07:39;19.60;99.90
53045;DHT22;38930;52.766;6.884;2023-08-01T15:10:05;19.50;99.90
53045;DHT22;38930;52.766;6.884;2023-08-01T15:12:33;19.50;99.90
53045;DHT22;38930;52.766;6.884;2023-08-01T15:14:59;19.50;99.90
53045;DHT22;38930;52.766;6.884;2023-08-01T15:17:24;19.60;99.90
53045;DHT22;38930;52.766;6.884;2023-08-01T15:19:50;19.60;99.90
53045;DHT22;38930;52.766;6.884;2023-08-01T15:22:17;19.70;99.90
53045;DHT22;38930;52.766;6.884;2023-08-01T15:24:43;19.80;99.90
53045;DHT22;38930;52.766;6.884;2023-08-01T15:27:09;19.80;99.90